sensor_id;sensor_type;location;lat;lon;timestamp;temperature;humidity
4701;DHT22;8724;51.272;6.554;2022-10-31T00:01:22;18.40;99.90
4701;DHT22;8724;51.272;6.554;2022-10-31T00:03:52;18.50;99.90
4701;DHT22;8724;51.272;6.554;2022-10-31T00:06:22;18.40;99.90
4701;DHT22;8724;51.272;6.554;2022-10-31T00:08:52;18.40;99.90
4701;DHT22;8724;51.272;6.554;2022-10-31T00:11:21;18.40;99.90
4701;DHT22;8724;51.272;6.554;2022-10-31T00:13:49;18.40;99.90
4701;DHT22;8724;51.272;6.554;2022-10-31T00:16:19;18.40;99.90
4701;DHT22;8724;51.272;6.554;2022-10-31T00:18:48;18.40;99.90
4701;DHT22;8724;51.272;6.554;2022-10-31T00:21:19;18.40;99.90
4701;DHT22;8724;51.272;6.554;2022-10-31T00:23:47;18.40;99.90
4701;DHT22;8724;51.272;6.554;2022-10-31T00:26:16;18.40;99.90
4701;DHT22;8724;51.272;6.554;2022-10-31T00:28:44;18.40;99.90
4701;DHT22;8724;51.272;6.554;2022-10-31T00:31:13;18.40;99.90
4701;DHT22;8724;51.272;6.554;2022-10-31T00:33:42;18.40;99.90
4701;DHT22;8724;51.272;6.554;2022-10-31T00:36:12;18.40;99.90
4701;DHT22;8724;51.272;6.554;2022-10-31T00:38:43;18.40;99.90
4701;DHT22;8724;51.272;6.554;2022-10-31T00:41:13;18.40;99.90
4701;DHT22;8724;51.272;6.554;2022-10-31T00:43:43;18.40;99.90
4701;DHT22;8724;51.272;6.554;2022-10-31T00:46:12;18.40;99.90
4701;DHT22;8724;51.272;6.554;2022-10-31T00:48:40;18.40;99.90
4701;DHT22;8724;51.272;6.554;2022-10-31T00:51:09;18.40;99.90
4701;DHT22;8724;51.272;6.554;2022-10-31T00:53:41;18.40;99.90
4701;DHT22;8724;51.272;6.554;2022-10-31T00:56:10;18.40;99.90
4701;DHT22;8724;51.272;6.554;2022-10-31T00:58:38;18.40;99.90
4701;DHT22;8724;51.272;6.554;2022-10-31T01:01:08;18.40;99.90
4701;DHT22;8724;51.272;6.554;2022-10-31T01:03:36;18.40;99.90
4701;DHT22;8724;51.272;6.554;2022-10-31T01:06:12;18.40;99.90
4701;DHT22;8724;51.272;6.554;2022-10-31T01:08:42;18.30;99.90
4701;DHT22;8724;51.272;6.554;2022-10-31T01:11:14;18.40;99.90
4701;DHT22;8724;51.272;6.554;2022-10-31T01:13:43;18.30;99.90
4701;DHT22;8724;51.272;6.554;2022-10-31T01:16:13;18.30;99.90
4701;DHT22;8724;51.272;6.554;2022-10-31T01:18:41;18.40;99.90
4701;DHT22;8724;51.272;6.554;2022-10-31T01:21:12;18.40;99.90
4701;DHT22;8724;51.272;6.554;2022-10-31T01:23:42;18.40;99.90
4701;DHT22;8724;51.272;6.554;2022-10-31T01:26:14;18.40;99.90
4701;DHT22;8724;51.272;6.554;2022-10-31T01:28:47;18.40;99.90
4701;DHT22;8724;51.272;6.554;2022-10-31T01:31:17;18.40;99.90
4701;DHT22;8724;51.272;6.554;2022-10-31T01:33:46;18.40;99.90
4701;DHT22;8724;51.272;6.554;2022-10-31T01:36:16;18.40;99.90
4701;DHT22;8724;51.272;6.554;2022-10-31T01:38:48;18.30;99.90
4701;DHT22;8724;51.272;6.554;2022-10-31T01:41:19;18.30;99.90
4701;DHT22;8724;51.272;6.554;2022-10-31T01:43:50;18.30;99.90
4701;DHT22;8724;51.272;6.554;2022-10-31T01:46:22;18.30;99.90
4701;DHT22;8724;51.272;6.554;2022-10-31T01:48:53;18.30;99.90
4701;DHT22;8724;51.272;6.554;2022-10-31T01:51:26;18.30;99.90
4701;DHT22;8724;51.272;6.554;2022-10-31T01:54:00;18.30;99.90
4701;DHT22;8724;51.272;6.554;2022-10-31T01:56:30;18.30;99.90
4701;DHT22;8724;51.272;6.554;2022-10-31T01:58:59;18.30;99.90
4701;DHT22;8724;51.272;6.554;2022-10-31T02:01:29;18.30;99.90
4701;DHT22;8724;51.272;6.554;2022-10-31T02:03:57;18.20;99.90
4701;DHT22;8724;51.272;6.554;2022-10-31T02:06:31;18.20;99.90
4701;DHT22;8724;51.272;6.554;2022-10-31T02:09:04;18.20;99.90
4701;DHT22;8724;51.272;6.554;2022-10-31T02:11:34;18.20;99.90
4701;DHT22;8724;51.272;6.554;2022-10-31T02:14:04;18.20;99.90
4701;DHT22;8724;51.272;6.554;2022-10-31T02:16:32;18.20;99.90
4701;DHT22;8724;51.272;6.554;2022-10-31T02:19:02;18.20;99.90
4701;DHT22;8724;51.272;6.554;2022-10-31T02:21:39;18.20;99.90
4701;DHT22;8724;51.272;6.554;2022-10-31T02:24:34;18.20;99.90
4701;DHT22;8724;51.272;6.554;2022-10-31T02:27:45;18.20;99.90
4701;DHT22;8724;51.272;6.554;2022-10-31T02:30:21;18.20;99.90
4701;DHT22;8724;51.272;6.554;2022-10-31T02:33:04;18.10;99.90
4701;DHT22;8724;51.272;6.554;2022-10-31T02:35:50;18.10;99.90
4701;DHT22;8724;51.272;6.554;2022-10-31T02:38:34;18.10;99.90
4701;DHT22;8724;51.272;6.554;2022-10-31T02:41:11;18.10;99.90
4701;DHT22;8724;51.272;6.554;2022-10-31T02:43:57;18.10;99.90
4701;DHT22;8724;51.272;6.554;2022-10-31T02:46:32;18.10;99.90
4701;DHT22;8724;51.272;6.554;2022-10-31T02:49:10;18.10;99.90
4701;DHT22;8724;51.272;6.554;2022-10-31T02:51:40;18.00;99.90
4701;DHT22;8724;51.272;6.554;2022-10-31T02:54:18;18.10;99.90
4701;DHT22;8724;51.272;6.554;2022-10-31T02:56:53;18.00;99.90
4701;DHT22;8724;51.272;6.554;2022-10-31T02:59:23;18.00;99.90
4701;DHT22;8724;51.272;6.554;2022-10-31T03:02:07;18.00;99.90
4701;DHT22;8724;51.272;6.554;2022-10-31T03:04:53;18.00;99.90
4701;DHT22;8724;51.272;6.554;2022-10-31T03:07:30;17.90;99.90
4701;DHT22;8724;51.272;6.554;2022-10-31T03:10:07;17.90;99.90
4701;DHT22;8724;51.272;6.554;2022-10-31T03:12:47;17.90;99.90
4701;DHT22;8724;51.272;6.554;2022-10-31T03:15:21;17.90;99.90
4701;DHT22;8724;51.272;6.554;2022-10-31T03:17:55;17.90;99.90
4701;DHT22;8724;51.272;6.554;2022-10-31T03:20:34;17.90;99.90
4701;DHT22;8724;51.272;6.554;2022-10-31T03:23:06;17.80;99.90
4701;DHT22;8724;51.272;6.554;2022-10-31T03:25:37;17.80;99.90
4701;DHT22;8724;51.272;6.554;2022-10-31T03:28:10;18.20;99.90
4701;DHT22;8724;51.272;6.554;2022-10-31T03:30:42;17.80;99.90
4701;DHT22;8724;51.272;6.554;2022-10-31T03:33:15;17.80;99.90
4701;DHT22;8724;51.272;6.554;2022-10-31T03:35:48;17.80;99.90
4701;DHT22;8724;51.272;6.554;2022-10-31T03:38:19;17.70;99.90
4701;DHT22;8724;51.272;6.554;2022-10-31T03:40:51;17.70;99.90
4701;DHT22;8724;51.272;6.554;2022-10-31T03:43:24;17.70;99.90
4701;DHT22;8724;51.272;6.554;2022-10-31T03:45:55;17.70;99.90
4701;DHT22;8724;51.272;6.554;2022-10-31T03:48:25;17.70;99.90
4701;DHT22;8724;51.272;6.554;2022-10-31T03:51:00;17.70;99.90
4701;DHT22;8724;51.272;6.554;2022-10-31T03:53:36;17.70;99.90
4701;DHT22;8724;51.272;6.554;2022-10-31T03:56:11;17.70;99.90
4701;DHT22;8724;51.272;6.554;2022-10-31T03:58:44;17.60;99.90
4701;DHT22;8724;51.272;6.554;2022-10-31T04:01:17;17.70;99.90
4701;DHT22;8724;51.272;6.554;2022-10-31T04:03:48;17.60;99.90
4701;DHT22;8724;51.272;6.554;2022-10-31T04:06:20;17.60;99.90
4701;DHT22;8724;51.272;6.554;2022-10-31T04:08:54;17.60;99.90
4701;DHT22;8724;51.272;6.554;2022-10-31T04:11:30;17.60;99.90
4701;DHT22;8724;51.272;6.554;2022-10-31T04:14:25;17.60;99.90
4701;DHT22;8724;51.272;6.554;2022-10-31T04:16:56;17.60;99.90
4701;DHT22;8724;51.272;6.554;2022-10-31T04:19:34;17.60;99.90
4701;DHT22;8724;51.272;6.554;2022-10-31T04:22:04;17.60;99.90
4701;DHT22;8724;51.272;6.554;2022-10-31T04:24:32;17.50;99.90
4701;DHT22;8724;51.272;6.554;2022-10-31T04:27:01;17.50;99.90
4701;DHT22;8724;51.272;6.554;2022-10-31T04:29:30;17.50;99.90
4701;DHT22;8724;51.272;6.554;2022-10-31T04:31:58;17.50;99.90
4701;DHT22;8724;51.272;6.554;2022-10-31T04:34:26;17.50;99.90
4701;DHT22;8724;51.272;6.554;2022-10-31T04:36:55;17.50;99.90
4701;DHT22;8724;51.272;6.554;2022-10-31T04:39:25;17.50;99.90
4701;DHT22;8724;51.272;6.554;2022-10-31T04:42:17;17.80;99.90
4701;DHT22;8724;51.272;6.554;2022-10-31T04:44:46;17.50;99.90
4701;DHT22;8724;51.272;6.554;2022-10-31T04:47:15;17.50;99.90
4701;DHT22;8724;51.272;6.554;2022-10-31T04:49:45;17.50;99.90
4701;DHT22;8724;51.272;6.554;2022-10-31T04:52:19;17.40;99.90
4701;DHT22;8724;51.272;6.554;2022-10-31T04:54:53;17.40;99.90
4701;DHT22;8724;51.272;6.554;2022-10-31T04:57:57;17.40;99.90
4701;DHT22;8724;51.272;6.554;2022-10-31T05:00:28;17.40;99.90
4701;DHT22;8724;51.272;6.554;2022-10-31T05:02:57;17.40;99.90
4701;DHT22;8724;51.272;6.554;2022-10-31T05:05:31;17.40;99.90
4701;DHT22;8724;51.272;6.554;2022-10-31T05:08:05;17.40;99.90
4701;DHT22;8724;51.272;6.554;2022-10-31T05:10:37;17.30;99.90
4701;DHT22;8724;51.272;6.554;2022-10-31T05:13:07;17.40;99.90
4701;DHT22;8724;51.272;6.554;2022-10-31T05:15:58;17.30;99.90
4701;DHT22;8724;51.272;6.554;2022-10-31T05:18:38;17.30;99.90
4701;DHT22;8724;51.272;6.554;2022-10-31T05:21:48;17.30;99.90
4701;DHT22;8724;51.272;6.554;2022-10-31T05:24:21;17.30;99.90
4701;DHT22;8724;51.272;6.554;2022-10-31T05:26:54;17.30;99.90
4701;DHT22;8724;51.272;6.554;2022-10-31T05:29:22;17.30;99.90
4701;DHT22;8724;51.272;6.554;2022-10-31T05:31:52;17.30;99.90
4701;DHT22;8724;51.272;6.554;2022-10-31T05:34:44;17.20;99.90
4701;DHT22;8724;51.272;6.554;2022-10-31T05:37:36;17.30;99.90
4701;DHT22;8724;51.272;6.554;2022-10-31T05:40:12;17.20;99.90
4701;DHT22;8724;51.272;6.554;2022-10-31T05:42:44;17.20;99.90
4701;DHT22;8724;51.272;6.554;2022-10-31T05:45:18;17.20;99.90
4701;DHT22;8724;51.272;6.554;2022-10-31T05:47:53;17.20;99.90
4701;DHT22;8724;51.272;6.554;2022-10-31T05:50:44;17.20;99.90
4701;DHT22;8724;51.272;6.554;2022-10-31T05:53:12;17.20;99.90
4701;DHT22;8724;51.272;6.554;2022-10-31T05:55:42;17.20;99.90
4701;DHT22;8724;51.272;6.554;2022-10-31T05:58:15;17.20;99.90
4701;DHT22;8724;51.272;6.554;2022-10-31T06:00:53;17.20;99.90
4701;DHT22;8724;51.272;6.554;2022-10-31T06:03:22;17.20;99.90
4701;DHT22;8724;51.272;6.554;2022-10-31T06:06:01;17.20;99.90
4701;DHT22;8724;51.272;6.554;2022-10-31T06:08:35;17.20;99.90
4701;DHT22;8724;51.272;6.554;2022-10-31T06:11:13;17.20;99.90
4701;DHT22;8724;51.272;6.554;2022-10-31T06:14:04;17.20;99.90
4701;DHT22;8724;51.272;6.554;2022-10-31T06:16:52;17.10;99.90
4701;DHT22;8724;51.272;6.554;2022-10-31T06:19:52;17.10;99.90
4701;DHT22;8724;51.272;6.554;2022-10-31T06:22:25;17.10;99.90
4701;DHT22;8724;51.272;6.554;2022-10-31T06:24:54;17.10;99.90
4701;DHT22;8724;51.272;6.554;2022-10-31T06:27:30;17.10;99.90
4701;DHT22;8724;51.272;6.554;2022-10-31T06:30:10;17.00;99.90
4701;DHT22;8724;51.272;6.554;2022-10-31T06:32:39;17.00;99.90
4701;DHT22;8724;51.272;6.554;2022-10-31T06:35:09;17.10;99.90
4701;DHT22;8724;51.272;6.554;2022-10-31T06:37:39;17.10;99.90
4701;DHT22;8724;51.272;6.554;2022-10-31T06:40:27;17.10;99.90
4701;DHT22;8724;51.272;6.554;2022-10-31T06:43:16;17.10;99.90
4701;DHT22;8724;51.272;6.554;2022-10-31T06:45:46;17.10;99.90
4701;DHT22;8724;51.272;6.554;2022-10-31T06:48:27;17.00;99.90
4701;DHT22;8724;51.272;6.554;2022-10-31T06:51:14;17.00;99.90
4701;DHT22;8724;51.272;6.554;2022-10-31T06:53:42;17.00;99.90
4701;DHT22;8724;51.272;6.554;2022-10-31T06:56:12;17.00;99.90
4701;DHT22;8724;51.272;6.554;2022-10-31T06:58:46;17.00;99.90
4701;DHT22;8724;51.272;6.554;2022-10-31T07:01:18;17.00;99.90
4701;DHT22;8724;51.272;6.554;2022-10-31T07:03:47;17.00;99.90
4701;DHT22;8724;51.272;6.554;2022-10-31T07:06:15;16.90;99.90
4701;DHT22;8724;51.272;6.554;2022-10-31T07:08:44;16.90;99.90
4701;DHT22;8724;51.272;6.554;2022-10-31T07:11:13;16.90;99.90
4701;DHT22;8724;51.272;6.554;2022-10-31T07:13:41;16.90;99.90
4701;DHT22;8724;51.272;6.554;2022-10-31T07:16:09;16.90;99.90
4701;DHT22;8724;51.272;6.554;2022-10-31T07:18:43;16.90;99.90
4701;DHT22;8724;51.272;6.554;2022-10-31T07:21:14;16.90;99.90
4701;DHT22;8724;51.272;6.554;2022-10-31T07:23:42;16.80;99.90
4701;DHT22;8724;51.272;6.554;2022-10-31T07:26:49;16.80;99.90
4701;DHT22;8724;51.272;6.554;2022-10-31T07:29:17;16.80;99.90
4701;DHT22;8724;51.272;6.554;2022-10-31T07:31:46;16.80;99.90
4701;DHT22;8724;51.272;6.554;2022-10-31T07:34:22;16.80;99.90
4701;DHT22;8724;51.272;6.554;2022-10-31T07:37:10;16.80;99.90
4701;DHT22;8724;51.272;6.554;2022-10-31T07:39:39;16.80;99.90
4701;DHT22;8724;51.272;6.554;2022-10-31T07:42:07;16.80;99.90
4701;DHT22;8724;51.272;6.554;2022-10-31T07:44:37;16.80;99.90
4701;DHT22;8724;51.272;6.554;2022-10-31T07:47:45;16.80;99.90
4701;DHT22;8724;51.272;6.554;2022-10-31T07:50:33;16.80;99.90
4701;DHT22;8724;51.272;6.554;2022-10-31T07:53:20;16.80;99.90
4701;DHT22;8724;51.272;6.554;2022-10-31T07:56:00;16.80;99.90
4701;DHT22;8724;51.272;6.554;2022-10-31T07:58:29;16.80;99.90
4701;DHT22;8724;51.272;6.554;2022-10-31T08:00:58;16.80;99.90
4701;DHT22;8724;51.272;6.554;2022-10-31T08:03:37;16.80;99.90
4701;DHT22;8724;51.272;6.554;2022-10-31T08:06:36;16.80;99.90
4701;DHT22;8724;51.272;6.554;2022-10-31T08:09:19;16.90;99.90
4701;DHT22;8724;51.272;6.554;2022-10-31T08:11:49;16.90;99.90
4701;DHT22;8724;51.272;6.554;2022-10-31T08:14:17;16.90;99.90
4701;DHT22;8724;51.272;6.554;2022-10-31T08:16:46;16.90;99.90
4701;DHT22;8724;51.272;6.554;2022-10-31T08:19:14;16.90;99.90
4701;DHT22;8724;51.272;6.554;2022-10-31T08:21:45;16.90;99.90
4701;DHT22;8724;51.272;6.554;2022-10-31T08:24:13;16.90;99.90
4701;DHT22;8724;51.272;6.554;2022-10-31T08:26:44;16.90;99.90
4701;DHT22;8724;51.272;6.554;2022-10-31T08:29:13;16.90;99.90
4701;DHT22;8724;51.272;6.554;2022-10-31T08:31:42;17.00;99.90
4701;DHT22;8724;51.272;6.554;2022-10-31T08:34:30;17.00;99.90
4701;DHT22;8724;51.272;6.554;2022-10-31T08:37:19;17.00;99.90
4701;DHT22;8724;51.272;6.554;2022-10-31T08:39:52;17.00;99.90
4701;DHT22;8724;51.272;6.554;2022-10-31T08:42:21;17.00;99.90
4701;DHT22;8724;51.272;6.554;2022-10-31T08:44:49;17.00;99.90
4701;DHT22;8724;51.272;6.554;2022-10-31T08:47:21;17.10;99.90
4701;DHT22;8724;51.272;6.554;2022-10-31T08:49:50;17.00;99.90
4701;DHT22;8724;51.272;6.554;2022-10-31T08:52:27;17.10;99.90
4701;DHT22;8724;51.272;6.554;2022-10-31T08:55:15;17.10;99.90
4701;DHT22;8724;51.272;6.554;2022-10-31T08:58:17;17.10;99.90
4701;DHT22;8724;51.272;6.554;2022-10-31T09:00:52;17.10;99.90
4701;DHT22;8724;51.272;6.554;2022-10-31T09:03:25;17.10;99.90
4701;DHT22;8724;51.272;6.554;2022-10-31T09:05:55;17.20;99.90
4701;DHT22;8724;51.272;6.554;2022-10-31T09:08:25;17.20;99.90
4701;DHT22;8724;51.272;6.554;2022-10-31T09:10:56;17.20;99.90
4701;DHT22;8724;51.272;6.554;2022-10-31T09:13:43;17.20;99.90
4701;DHT22;8724;51.272;6.554;2022-10-31T09:16:31;17.20;99.90
4701;DHT22;8724;51.272;6.554;2022-10-31T09:19:00;17.20;99.90
4701;DHT22;8724;51.272;6.554;2022-10-31T09:21:35;17.20;99.90
4701;DHT22;8724;51.272;6.554;2022-10-31T09:24:06;17.20;99.90
4701;DHT22;8724;51.272;6.554;2022-10-31T09:26:34;17.20;99.90
4701;DHT22;8724;51.272;6.554;2022-10-31T09:29:38;17.30;99.90
4701;DHT22;8724;51.272;6.554;2022-10-31T09:32:09;17.30;99.90
4701;DHT22;8724;51.272;6.554;2022-10-31T09:34:43;17.30;99.90
4701;DHT22;8724;51.272;6.554;2022-10-31T09:37:15;17.30;99.90
4701;DHT22;8724;51.272;6.554;2022-10-31T09:39:46;17.30;99.90
4701;DHT22;8724;51.272;6.554;2022-10-31T09:42:44;17.30;99.90
4701;DHT22;8724;51.272;6.554;2022-10-31T09:45:25;17.30;99.90
4701;DHT22;8724;51.272;6.554;2022-10-31T09:48:14;17.40;99.90
4701;DHT22;8724;51.272;6.554;2022-10-31T09:51:07;17.40;99.90
4701;DHT22;8724;51.272;6.554;2022-10-31T09:54:03;17.40;99.90
4701;DHT22;8724;51.272;6.554;2022-10-31T09:56:35;17.40;99.90
4701;DHT22;8724;51.272;6.554;2022-10-31T09:59:05;17.50;99.90
4701;DHT22;8724;51.272;6.554;2022-10-31T10:01:45;17.20;99.90
4701;DHT22;8724;51.272;6.554;2022-10-31T10:04:34;17.50;99.90
4701;DHT22;8724;51.272;6.554;2022-10-31T10:07:16;17.50;99.90
4701;DHT22;8724;51.272;6.554;2022-10-31T10:10:26;17.50;99.90
4701;DHT22;8724;51.272;6.554;2022-10-31T10:13:26;17.60;99.90
4701;DHT22;8724;51.272;6.554;2022-10-31T10:16:08;17.60;99.90
4701;DHT22;8724;51.272;6.554;2022-10-31T10:18:50;17.60;99.90
4701;DHT22;8724;51.272;6.554;2022-10-31T10:21:28;17.60;99.90
4701;DHT22;8724;51.272;6.554;2022-10-31T10:24:09;17.70;99.90
4701;DHT22;8724;51.272;6.554;2022-10-31T10:26:43;17.70;99.90
4701;DHT22;8724;51.272;6.554;2022-10-31T10:29:29;17.70;99.90
4701;DHT22;8724;51.272;6.554;2022-10-31T10:32:04;17.70;99.90
4701;DHT22;8724;51.272;6.554;2022-10-31T10:34:37;17.70;99.90
4701;DHT22;8724;51.272;6.554;2022-10-31T10:37:14;17.70;99.90
4701;DHT22;8724;51.272;6.554;2022-10-31T10:39:46;17.70;99.90
4701;DHT22;8724;51.272;6.554;2022-10-31T10:42:16;17.70;99.90
4701;DHT22;8724;51.272;6.554;2022-10-31T10:45:14;17.80;99.90
4701;DHT22;8724;51.272;6.554;2022-10-31T10:48:06;17.80;99.90
4701;DHT22;8724;51.272;6.554;2022-10-31T10:50:40;17.80;99.90
4701;DHT22;8724;51.272;6.554;2022-10-31T10:53:39;17.80;99.90
4701;DHT22;8724;51.272;6.554;2022-10-31T10:56:36;17.90;99.90
4701;DHT22;8724;51.272;6.554;2022-10-31T10:59:09;17.80;99.90
4701;DHT22;8724;51.272;6.554;2022-10-31T11:01:41;17.90;99.90
4701;DHT22;8724;51.272;6.554;2022-10-31T11:04:28;17.90;99.90
4701;DHT22;8724;51.272;6.554;2022-10-31T11:06:59;17.90;99.90
4701;DHT22;8724;51.272;6.554;2022-10-31T11:09:28;17.90;99.90
4701;DHT22;8724;51.272;6.554;2022-10-31T11:11:57;17.90;99.90
4701;DHT22;8724;51.272;6.554;2022-10-31T11:14:27;17.90;99.90
4701;DHT22;8724;51.272;6.554;2022-10-31T11:17:14;17.90;99.90
4701;DHT22;8724;51.272;6.554;2022-10-31T11:19:44;18.00;99.90
4701;DHT22;8724;51.272;6.554;2022-10-31T11:22:16;18.30;99.90
4701;DHT22;8724;51.272;6.554;2022-10-31T11:24:44;18.00;99.90
4701;DHT22;8724;51.272;6.554;2022-10-31T11:27:16;18.00;99.90
4701;DHT22;8724;51.272;6.554;2022-10-31T11:29:45;18.00;99.90
4701;DHT22;8724;51.272;6.554;2022-10-31T11:32:20;18.10;99.90
4701;DHT22;8724;51.272;6.554;2022-10-31T11:34:52;18.10;99.90
4701;DHT22;8724;51.272;6.554;2022-10-31T11:37:24;18.10;99.90
4701;DHT22;8724;51.272;6.554;2022-10-31T11:39:55;18.10;99.90
4701;DHT22;8724;51.272;6.554;2022-10-31T11:42:26;18.10;99.90
4701;DHT22;8724;51.272;6.554;2022-10-31T11:44:55;18.10;99.90
4701;DHT22;8724;51.272;6.554;2022-10-31T11:47:28;18.10;99.90
4701;DHT22;8724;51.272;6.554;2022-10-31T11:50:02;18.10;99.90
4701;DHT22;8724;51.272;6.554;2022-10-31T11:52:38;18.10;99.90
4701;DHT22;8724;51.272;6.554;2022-10-31T11:55:17;18.20;99.90
4701;DHT22;8724;51.272;6.554;2022-10-31T11:57:57;18.20;99.90
4701;DHT22;8724;51.272;6.554;2022-10-31T12:00:28;18.20;99.90
4701;DHT22;8724;51.272;6.554;2022-10-31T12:03:25;18.20;99.90
4701;DHT22;8724;51.272;6.554;2022-10-31T12:06:00;18.20;99.90
4701;DHT22;8724;51.272;6.554;2022-10-31T12:08:31;18.20;99.90
4701;DHT22;8724;51.272;6.554;2022-10-31T12:11:20;18.30;99.90
4701;DHT22;8724;51.272;6.554;2022-10-31T12:14:04;18.30;99.90
4701;DHT22;8724;51.272;6.554;2022-10-31T12:16:45;18.30;99.90
4701;DHT22;8724;51.272;6.554;2022-10-31T12:19:23;18.30;99.90
4701;DHT22;8724;51.272;6.554;2022-10-31T12:22:12;18.30;99.90
4701;DHT22;8724;51.272;6.554;2022-10-31T12:27:51;18.40;99.90
4701;DHT22;8724;51.272;6.554;2022-10-31T12:30:26;18.40;99.90
4701;DHT22;8724;51.272;6.554;2022-10-31T12:33:22;18.40;99.90
4701;DHT22;8724;51.272;6.554;2022-10-31T12:36:05;18.40;99.90
4701;DHT22;8724;51.272;6.554;2022-10-31T12:39:02;18.40;99.90
4701;DHT22;8724;51.272;6.554;2022-10-31T12:41:50;18.50;99.90
4701;DHT22;8724;51.272;6.554;2022-10-31T12:44:47;18.50;99.90
4701;DHT22;8724;51.272;6.554;2022-10-31T12:47:40;18.50;99.90
4701;DHT22;8724;51.272;6.554;2022-10-31T12:50:24;18.50;99.90
4701;DHT22;8724;51.272;6.554;2022-10-31T12:53:04;18.50;99.90
4701;DHT22;8724;51.272;6.554;2022-10-31T12:55:42;18.60;99.90
4701;DHT22;8724;51.272;6.554;2022-10-31T12:58:17;18.60;99.90
4701;DHT22;8724;51.272;6.554;2022-10-31T13:00:53;18.60;99.90
4701;DHT22;8724;51.272;6.554;2022-10-31T13:03:30;18.60;99.90
4701;DHT22;8724;51.272;6.554;2022-10-31T13:06:05;18.70;99.90
4701;DHT22;8724;51.272;6.554;2022-10-31T13:08:40;18.60;99.90
4701;DHT22;8724;51.272;6.554;2022-10-31T13:11:14;18.70;99.90
4701;DHT22;8724;51.272;6.554;2022-10-31T13:13:51;18.70;99.90
4701;DHT22;8724;51.272;6.554;2022-10-31T13:16:24;18.70;99.90
4701;DHT22;8724;51.272;6.554;2022-10-31T13:18:57;18.70;99.90
4701;DHT22;8724;51.272;6.554;2022-10-31T13:21:29;18.70;99.90
4701;DHT22;8724;51.272;6.554;2022-10-31T13:24:04;18.80;99.90
4701;DHT22;8724;51.272;6.554;2022-10-31T13:26:37;18.80;99.90
4701;DHT22;8724;51.272;6.554;2022-10-31T13:29:15;18.80;99.90
4701;DHT22;8724;51.272;6.554;2022-10-31T13:31:45;18.80;99.90
4701;DHT22;8724;51.272;6.554;2022-10-31T13:34:26;19.00;99.90
4701;DHT22;8724;51.272;6.554;2022-10-31T13:37:04;18.80;99.90
4701;DHT22;8724;51.272;6.554;2022-10-31T13:39:45;18.80;99.90
4701;DHT22;8724;51.272;6.554;2022-10-31T13:42:19;18.80;99.90
4701;DHT22;8724;51.272;6.554;2022-10-31T13:44:50;18.80;99.90
4701;DHT22;8724;51.272;6.554;2022-10-31T13:47:24;18.80;99.90
4701;DHT22;8724;51.272;6.554;2022-10-31T13:50:05;18.80;99.90
4701;DHT22;8724;51.272;6.554;2022-10-31T13:52:33;18.80;99.90
4701;DHT22;8724;51.272;6.554;2022-10-31T13:55:04;18.80;99.90
4701;DHT22;8724;51.272;6.554;2022-10-31T13:57:37;18.80;99.90
4701;DHT22;8724;51.272;6.554;2022-10-31T14:00:23;18.90;99.90
4701;DHT22;8724;51.272;6.554;2022-10-31T14:02:55;18.90;99.90
4701;DHT22;8724;51.272;6.554;2022-10-31T14:05:26;18.80;99.90
4701;DHT22;8724;51.272;6.554;2022-10-31T14:07:57;18.90;99.90
4701;DHT22;8724;51.272;6.554;2022-10-31T14:10:29;18.90;99.90
4701;DHT22;8724;51.272;6.554;2022-10-31T14:13:04;18.90;99.90
4701;DHT22;8724;51.272;6.554;2022-10-31T14:15:34;18.90;99.90
4701;DHT22;8724;51.272;6.554;2022-10-31T14:18:05;18.90;99.90
4701;DHT22;8724;51.272;6.554;2022-10-31T14:20:37;18.90;99.90
4701;DHT22;8724;51.272;6.554;2022-10-31T14:23:37;18.90;99.90
4701;DHT22;8724;51.272;6.554;2022-10-31T14:26:33;18.90;99.90
4701;DHT22;8724;51.272;6.554;2022-10-31T14:31:53;18.60;99.90
4701;DHT22;8724;51.272;6.554;2022-10-31T14:34:26;18.90;99.90
4701;DHT22;8724;51.272;6.554;2022-10-31T14:37:07;18.90;99.90
4701;DHT22;8724;51.272;6.554;2022-10-31T14:39:41;18.90;99.90
4701;DHT22;8724;51.272;6.554;2022-10-31T14:42:32;18.90;99.90
4701;DHT22;8724;51.272;6.554;2022-10-31T14:45:17;18.90;99.90
4701;DHT22;8724;51.272;6.554;2022-10-31T14:47:56;18.90;99.90
4701;DHT22;8724;51.272;6.554;2022-10-31T14:50:43;18.90;99.90
4701;DHT22;8724;51.272;6.554;2022-10-31T14:53:18;18.90;99.90
4701;DHT22;8724;51.272;6.554;2022-10-31T14:55:49;18.90;99.90
4701;DHT22;8724;51.272;6.554;2022-10-31T14:58:23;18.90;99.90
4701;DHT22;8724;51.272;6.554;2022-10-31T15:00:56;18.90;99.90
4701;DHT22;8724;51.272;6.554;2022-10-31T15:03:29;18.90;99.90
4701;DHT22;8724;51.272;6.554;2022-10-31T15:06:01;18.90;99.90
4701;DHT22;8724;51.272;6.554;2022-10-31T15:08:34;18.90;99.90
4701;DHT22;8724;51.272;6.554;2022-10-31T15:11:09;18.90;99.90
4701;DHT22;8724;51.272;6.554;2022-10-31T15:13:44;18.90;99.90
4701;DHT22;8724;51.272;6.554;2022-10-31T15:16:14;18.90;99.90
4701;DHT22;8724;51.272;6.554;2022-10-31T15:18:50;18.90;99.90
4701;DHT22;8724;51.272;6.554;2022-10-31T15:21:24;18.90;99.90
4701;DHT22;8724;51.272;6.554;2022-10-31T15:23:56;18.90;99.90
4701;DHT22;8724;51.272;6.554;2022-10-31T15:26:29;18.90;99.90
4701;DHT22;8724;51.272;6.554;2022-10-31T15:29:02;18.90;99.90
4701;DHT22;8724;51.272;6.554;2022-10-31T15:31:31;18.90;99.90
4701;DHT22;8724;51.272;6.554;2022-10-31T15:34:04;18.90;99.90
4701;DHT22;8724;51.272;6.554;2022-10-31T15:36:34;18.90;99.90
4701;DHT22;8724;51.272;6.554;2022-10-31T15:39:04;18.90;99.90
4701;DHT22;8724;51.272;6.554;2022-10-31T15:41:43;18.90;99.90
4701;DHT22;8724;51.272;6.554;2022-10-31T15:44:25;18.90;99.90
4701;DHT22;8724;51.272;6.554;2022-10-31T15:46:56;18.90;99.90
4701;DHT22;8724;51.272;6.554;2022-10-31T15:49:36;18.90;99.90
4701;DHT22;8724;51.272;6.554;2022-10-31T15:52:12;18.90;99.90
4701;DHT22;8724;51.272;6.554;2022-10-31T15:54:47;18.90;99.90
4701;DHT22;8724;51.272;6.554;2022-10-31T15:57:16;18.90;99.90
4701;DHT22;8724;51.272;6.554;2022-10-31T15:59:48;18.90;99.90
4701;DHT22;8724;51.272;6.554;2022-10-31T16:02:20;18.90;99.90
4701;DHT22;8724;51.272;6.554;2022-10-31T16:04:52;18.90;99.90
4701;DHT22;8724;51.272;6.554;2022-10-31T16:07:21;18.90;99.90
4701;DHT22;8724;51.272;6.554;2022-10-31T16:09:52;18.90;99.90
4701;DHT22;8724;51.272;6.554;2022-10-31T16:12:21;18.90;99.90
4701;DHT22;8724;51.272;6.554;2022-10-31T16:14:52;18.80;99.90
4701;DHT22;8724;51.272;6.554;2022-10-31T16:17:24;18.90;99.90
4701;DHT22;8724;51.272;6.554;2022-10-31T16:19:56;18.90;99.90
4701;DHT22;8724;51.272;6.554;2022-10-31T16:22:28;18.80;99.90
4701;DHT22;8724;51.272;6.554;2022-10-31T16:25:01;18.80;99.90
4701;DHT22;8724;51.272;6.554;2022-10-31T16:27:32;18.80;99.90
4701;DHT22;8724;51.272;6.554;2022-10-31T16:32:55;18.80;99.90
4701;DHT22;8724;51.272;6.554;2022-10-31T16:35:27;18.80;99.90
4701;DHT22;8724;51.272;6.554;2022-10-31T16:37:56;18.80;99.90
4701;DHT22;8724;51.272;6.554;2022-10-31T16:40:24;18.80;99.90
4701;DHT22;8724;51.272;6.554;2022-10-31T16:42:53;18.70;99.90
4701;DHT22;8724;51.272;6.554;2022-10-31T16:45:24;18.80;99.90
4701;DHT22;8724;51.272;6.554;2022-10-31T16:47:53;18.70;99.90
4701;DHT22;8724;51.272;6.554;2022-10-31T16:50:23;18.70;99.90
4701;DHT22;8724;51.272;6.554;2022-10-31T16:52:52;18.70;99.90
4701;DHT22;8724;51.272;6.554;2022-10-31T16:55:44;18.70;99.90
4701;DHT22;8724;51.272;6.554;2022-10-31T16:58:19;18.70;99.90
4701;DHT22;8724;51.272;6.554;2022-10-31T17:00:50;18.70;99.90
4701;DHT22;8724;51.272;6.554;2022-10-31T17:03:19;18.70;99.90
4701;DHT22;8724;51.272;6.554;2022-10-31T17:05:48;18.70;99.90